createdAt,value
2023-05-24T00:01:00.244Z,1.70
2023-05-24T00:03:26.656Z,1.92
2023-05-24T00:05:53.058Z,1.73
2023-05-24T00:08:19.499Z,1.80
2023-05-24T00:10:46.409Z,2.22
2023-05-24T00:13:12.788Z,2.33
2023-05-24T00:15:39.127Z,2.10
2023-05-24T00:18:05.756Z,1.55
2023-05-24T00:20:32.127Z,1.83
2023-05-24T00:22:58.824Z,1.77
2023-05-24T00:25:25.424Z,2.30
2023-05-24T00:27:51.811Z,2.65
2023-05-24T00:30:18.167Z,2.03
2023-05-24T00:32:44.550Z,2.60
2023-05-24T00:35:10.996Z,1.75
2023-05-24T00:37:37.467Z,2.88
2023-05-24T00:40:04.899Z,1.67
2023-05-24T00:42:31.324Z,1.90
2023-05-24T00:44:57.846Z,1.40
2023-05-24T00:47:24.403Z,2.05
2023-05-24T00:49:50.998Z,1.70
2023-05-24T00:52:17.855Z,1.98
2023-05-24T00:54:44.800Z,2.30
2023-05-24T00:57:13.867Z,1.73
2023-05-24T00:59:40.484Z,2.22
2023-05-24T01:02:06.836Z,2.10
2023-05-24T01:04:33.325Z,2.55
2023-05-24T01:07:18.884Z,3.00
2023-05-24T01:09:50.672Z,2.30
2023-05-24T01:12:24.646Z,2.22
2023-05-24T01:15:01.598Z,2.05
2023-05-24T01:17:32.914Z,1.80
2023-05-24T01:20:02.487Z,2.40
2023-05-24T01:22:43.969Z,1.98
2023-05-24T01:25:27.833Z,2.88
2023-05-24T01:27:54.930Z,2.63
2023-05-24T01:30:21.303Z,1.38
2023-05-24T01:32:47.970Z,1.83
2023-05-24T01:35:14.430Z,1.77
2023-05-24T01:37:40.743Z,2.42
2023-05-24T01:40:07.574Z,2.13
2023-05-24T01:42:37.790Z,2.47
2023-05-24T01:45:12.927Z,2.53
2023-05-24T01:47:51.326Z,1.73
2023-05-24T01:50:25.932Z,2.03
2023-05-24T01:52:53.449Z,2.13
2023-05-24T01:55:20.908Z,2.15
2023-05-24T01:57:48.824Z,2.33
2023-05-24T02:00:16.589Z,2.13
2023-05-24T02:02:43.256Z,2.25
2023-05-24T02:05:10.238Z,2.30
2023-05-24T02:07:36.578Z,2.25
2023-05-24T02:10:03.163Z,2.63
2023-05-24T02:12:29.791Z,2.20
2023-05-24T02:14:57.273Z,2.15
2023-05-24T02:17:25.797Z,1.98
2023-05-24T02:19:52.422Z,2.63
2023-05-24T02:22:18.999Z,1.52
2023-05-24T02:24:45.383Z,2.97
2023-05-24T02:27:11.729Z,2.30
2023-05-24T02:29:38.018Z,2.28
2023-05-24T02:32:04.476Z,2.30
2023-05-24T02:34:30.802Z,1.85
2023-05-24T02:36:57.217Z,2.22
2023-05-24T02:39:23.593Z,2.25
2023-05-24T02:41:49.950Z,2.67
2023-05-24T02:44:16.311Z,3.63
2023-05-24T02:46:42.663Z,2.85
2023-05-24T02:49:10.340Z,2.72
2023-05-24T02:51:39.680Z,3.10
2023-05-24T02:54:06.193Z,2.83
2023-05-24T02:56:33.061Z,2.80
2023-05-24T02:58:59.403Z,2.72
2023-05-24T03:01:26.007Z,2.55
2023-05-24T03:03:52.433Z,1.95
2023-05-24T03:06:18.855Z,2.65
2023-05-24T03:08:45.209Z,2.95
2023-05-24T03:11:11.499Z,3.13
2023-05-24T03:13:38.117Z,2.42
2023-05-24T03:16:04.677Z,2.13
2023-05-24T03:18:31.022Z,3.03
2023-05-24T03:20:57.393Z,2.10
2023-05-24T03:23:23.732Z,2.65
2023-05-24T03:25:50.035Z,2.90
2023-05-24T03:28:16.353Z,2.20
2023-05-24T03:30:43.081Z,1.73
2023-05-24T03:33:10.433Z,2.13
2023-05-24T03:35:36.898Z,1.77
2023-05-24T03:38:03.234Z,2.55
2023-05-24T03:40:32.526Z,2.85
2023-05-24T03:42:59.511Z,3.72
2023-05-24T03:45:37.509Z,3.47
2023-05-24T03:48:05.963Z,2.55
2023-05-24T03:50:32.441Z,1.75
2023-05-24T03:52:58.943Z,3.67
2023-05-24T03:55:25.564Z,2.72
2023-05-24T03:57:51.968Z,2.72
2023-05-24T04:00:18.478Z,2.95
2023-05-24T04:02:45.010Z,2.80
2023-05-24T04:05:12.164Z,2.58
2023-05-24T04:07:38.621Z,2.63
2023-05-24T04:10:05.972Z,2.65
2023-05-24T04:12:32.610Z,2.53
2023-05-24T04:14:59.477Z,2.22
2023-05-24T04:17:27.163Z,2.70
2023-05-24T04:19:53.680Z,2.67
2023-05-24T04:22:20.320Z,3.15
2023-05-24T04:24:46.729Z,2.63
2023-05-24T04:27:13.164Z,2.30
2023-05-24T04:29:40.240Z,3.25
2023-05-24T04:32:07.121Z,2.92
2023-05-24T04:34:36.669Z,2.55
2023-05-24T04:37:03.635Z,3.15
2023-05-24T04:39:30.057Z,2.80
2023-05-24T04:41:58.113Z,3.25
2023-05-24T04:44:24.785Z,2.90
2023-05-24T04:46:51.072Z,2.97
2023-05-24T04:49:17.775Z,2.40
2023-05-24T04:51:44.412Z,2.40
2023-05-24T04:54:10.775Z,3.67
2023-05-24T04:56:38.503Z,2.60
2023-05-24T04:59:05.954Z,3.47
2023-05-24T05:01:32.457Z,2.92
2023-05-24T05:03:59.328Z,3.72
2023-05-24T05:06:25.827Z,3.45
2023-05-24T05:08:52.383Z,3.83
2023-05-24T05:11:19.166Z,2.65
2023-05-24T05:13:45.605Z,2.83
2023-05-24T05:16:11.980Z,2.63
2023-05-24T05:18:38.432Z,2.97
2023-05-24T05:21:04.779Z,2.97
2023-05-24T05:23:31.275Z,2.92
2023-05-24T05:25:57.656Z,3.40
2023-05-24T05:28:23.986Z,3.05
2023-05-24T05:30:50.355Z,3.17
2023-05-24T05:33:16.812Z,3.38
2023-05-24T05:35:43.299Z,2.67
2023-05-24T05:38:09.693Z,3.53
2023-05-24T05:40:36.228Z,3.45
2023-05-24T05:43:02.561Z,3.17
2023-05-24T05:45:29.039Z,3.92
2023-05-24T05:47:55.396Z,2.58
2023-05-24T05:50:21.771Z,3.00
2023-05-24T05:52:48.117Z,4.00
2023-05-24T05:55:14.436Z,3.03
2023-05-24T05:57:41.107Z,3.28
2023-05-24T06:00:07.784Z,2.92
2023-05-24T06:02:34.360Z,2.85
2023-05-24T06:05:00.984Z,3.05
2023-05-24T06:07:27.429Z,2.95
2023-05-24T06:09:53.759Z,3.42
2023-05-24T06:12:20.157Z,2.38
2023-05-24T06:14:48.249Z,2.78
2023-05-24T06:17:14.799Z,3.45
2023-05-24T06:19:41.179Z,2.35
2023-05-24T06:22:07.531Z,2.45
2023-05-24T06:24:34.802Z,2.45
2023-05-24T06:27:03.307Z,3.17
2023-05-24T06:29:31.750Z,2.58
2023-05-24T06:31:58.214Z,3.17
2023-05-24T06:34:24.738Z,2.45
2023-05-24T06:36:52.904Z,3.13
2023-05-24T06:39:19.554Z,2.60
2023-05-24T06:41:46.953Z,2.95
2023-05-24T06:44:13.458Z,2.30
2023-05-24T06:46:39.819Z,2.97
2023-05-24T06:49:06.970Z,3.38
2023-05-24T06:51:37.962Z,2.63
2023-05-24T06:54:04.348Z,2.17
2023-05-24T06:56:30.682Z,2.65
2023-05-24T06:58:57.147Z,2.63
2023-05-24T07:01:23.658Z,2.33
2023-05-24T07:03:50.531Z,2.03
2023-05-24T07:06:17.262Z,3.22
2023-05-24T07:08:43.568Z,2.33
2023-05-24T07:11:10.015Z,3.10
2023-05-24T07:13:36.431Z,2.58
2023-05-24T07:16:02.758Z,2.22
2023-05-24T07:18:29.948Z,2.47
2023-05-24T07:20:56.278Z,2.50
2023-05-24T07:23:22.579Z,2.83
2023-05-24T07:25:49.433Z,2.28
2023-05-24T07:28:17.938Z,2.88
2023-05-24T07:30:44.536Z,1.92
2023-05-24T07:33:11.311Z,2.55
2023-05-24T07:35:38.561Z,2.38
2023-05-24T07:38:04.876Z,2.60
2023-05-24T07:40:31.206Z,1.92
2023-05-24T07:42:57.622Z,3.15
2023-05-24T07:45:24.218Z,2.30
2023-05-24T07:47:50.867Z,2.58
2023-05-24T07:50:17.446Z,1.73
2023-05-24T07:52:43.830Z,2.30
2023-05-24T07:55:10.310Z,2.78
2023-05-24T07:57:36.648Z,2.58
2023-05-24T08:00:10.641Z,2.92
2023-05-24T08:02:37.103Z,2.65
2023-05-24T08:05:05.046Z,1.95
2023-05-24T08:07:31.379Z,2.55
2023-05-24T08:09:57.723Z,1.83
2023-05-24T08:12:25.873Z,1.70
2023-05-24T08:14:52.261Z,2.22
2023-05-24T08:17:19.224Z,2.45
2023-05-24T08:19:45.550Z,2.13
2023-05-24T08:22:12.665Z,2.75
2023-05-24T08:24:38.951Z,3.35
2023-05-24T08:27:05.457Z,2.08
2023-05-24T08:29:32.150Z,1.92
2023-05-24T08:31:59.789Z,1.58
2023-05-24T08:34:26.760Z,2.25
2023-05-24T08:36:53.881Z,2.30
2023-05-24T08:39:20.225Z,1.55
2023-05-24T08:41:57.414Z,2.53
2023-05-24T08:44:38.382Z,2.50
2023-05-24T08:47:05.013Z,2.35
2023-05-24T08:49:33.943Z,2.33
2023-05-24T08:52:01.266Z,2.10
2023-05-24T08:54:27.786Z,2.30
2023-05-24T08:56:54.213Z,2.20
2023-05-24T08:59:21.063Z,1.65
2023-05-24T09:01:51.062Z,2.03
2023-05-24T09:04:17.572Z,2.05
2023-05-24T09:06:44.026Z,1.80
2023-05-24T09:09:11.453Z,2.30
2023-05-24T09:11:39.598Z,2.30
2023-05-24T09:14:06.010Z,2.20
2023-05-24T09:16:32.543Z,1.85
2023-05-24T09:18:59.117Z,1.95
2023-05-24T09:21:25.684Z,1.90
2023-05-24T09:23:53.355Z,2.28
2023-05-24T09:26:20.380Z,1.80
2023-05-24T09:28:47.465Z,2.05
2023-05-24T09:31:13.945Z,1.83
2023-05-24T09:33:40.353Z,1.85
2023-05-24T09:36:07.103Z,2.53
2023-05-24T09:38:33.433Z,1.48
2023-05-24T09:41:00.958Z,1.83
2023-05-24T09:43:27.362Z,2.17
2023-05-24T09:45:55.714Z,2.55
2023-05-24T09:48:21.988Z,2.08
2023-05-24T09:51:04.277Z,1.92
2023-05-24T09:53:33.946Z,2.15
2023-05-24T09:56:01.810Z,1.88
2023-05-24T09:58:33.400Z,2.45
2023-05-24T10:01:10.816Z,2.45
2023-05-24T10:03:37.904Z,3.22
2023-05-24T10:06:07.464Z,1.77
2023-05-24T10:08:34.597Z,2.10
2023-05-24T10:11:02.216Z,2.00
2023-05-24T10:13:28.985Z,1.73
2023-05-24T10:15:55.483Z,2.05
2023-05-24T10:18:22.048Z,2.10
2023-05-24T10:20:48.732Z,1.65
2023-05-24T10:23:16.841Z,2.47
2023-05-24T10:25:59.983Z,2.13
2023-05-24T10:28:26.787Z,2.42
2023-05-24T10:31:04.650Z,2.47
2023-05-24T10:33:32.407Z,1.75
2023-05-24T10:35:58.931Z,1.70
2023-05-24T10:38:25.786Z,2.45
2023-05-24T10:40:52.428Z,2.00
2023-05-24T10:43:19.140Z,2.08
2023-05-24T10:45:48.654Z,2.03
2023-05-24T10:48:15.568Z,1.88
2023-05-24T10:50:43.073Z,1.90
2023-05-24T10:53:16.438Z,1.67
2023-05-24T10:55:55.814Z,1.98
2023-05-24T10:58:26.678Z,1.58
2023-05-24T11:00:53.434Z,1.80
2023-05-24T11:03:24.433Z,1.60
2023-05-24T11:05:52.978Z,1.27
2023-05-24T11:08:23.542Z,2.47
2023-05-24T11:10:50.149Z,1.80
2023-05-24T11:13:18.585Z,1.65
2023-05-24T11:15:51.622Z,1.88
2023-05-24T11:18:22.059Z,1.70
2023-05-24T11:20:48.678Z,1.85
2023-05-24T11:23:16.122Z,1.40
2023-05-24T11:25:42.725Z,1.33
2023-05-24T11:28:10.954Z,2.35
2023-05-24T11:30:41.134Z,1.35
2023-05-24T11:33:18.754Z,2.13
2023-05-24T11:35:45.453Z,2.03
2023-05-24T11:38:15.159Z,1.35
2023-05-24T11:40:44.798Z,1.40
2023-05-24T11:43:17.919Z,1.40
2023-05-24T11:45:45.242Z,2.10
2023-05-24T11:48:11.892Z,1.80
2023-05-24T11:50:49.379Z,1.42
2023-05-24T11:53:18.883Z,1.58
2023-05-24T11:55:45.498Z,1.50
2023-05-24T11:58:18.205Z,1.92
2023-05-24T12:00:44.730Z,2.10
2023-05-24T12:03:11.236Z,2.03
2023-05-24T12:05:38.018Z,1.60
2023-05-24T12:08:05.986Z,1.80
2023-05-24T12:10:33.357Z,1.38
2023-05-24T12:12:59.717Z,1.35
2023-05-24T12:15:26.433Z,2.63
2023-05-24T12:17:53.401Z,1.80
2023-05-24T12:20:20.507Z,1.90
2023-05-24T12:22:53.386Z,1.73
2023-05-24T12:25:23.115Z,1.40
2023-05-24T12:27:54.432Z,2.08
2023-05-24T12:30:24.558Z,1.83
2023-05-24T12:32:51.236Z,1.70
2023-05-24T12:35:18.438Z,1.58
2023-05-24T12:37:45.287Z,1.95
2023-05-24T12:40:20.613Z,2.30
2023-05-24T12:45:18.072Z,1.48
2023-05-24T12:47:44.374Z,1.77
2023-05-24T12:50:11.501Z,1.17
2023-05-24T12:52:37.861Z,1.58
2023-05-24T12:55:04.354Z,1.80
2023-05-24T12:57:31.111Z,1.80
2023-05-24T12:59:57.958Z,2.70
2023-05-24T13:02:24.316Z,1.80
2023-05-24T13:04:51.354Z,2.45
2023-05-24T13:07:17.855Z,2.28
2023-05-24T13:09:44.174Z,1.67
2023-05-24T13:12:10.531Z,1.60
2023-05-24T13:14:36.903Z,1.90
2023-05-24T13:17:03.334Z,1.30
2023-05-24T13:19:29.675Z,1.77
2023-05-24T13:21:56.015Z,1.48
2023-05-24T13:24:23.180Z,1.50
2023-05-24T13:26:52.256Z,1.52
2023-05-24T13:29:34.064Z,1.70
2023-05-24T13:32:03.347Z,1.52
2023-05-24T13:34:29.710Z,1.30
2023-05-24T13:36:56.099Z,1.10
2023-05-24T13:39:22.807Z,1.80
2023-05-24T13:41:49.534Z,2.10
2023-05-24T13:44:16.585Z,1.60
2023-05-24T13:46:43.506Z,1.90
2023-05-24T13:49:10.889Z,1.98
2023-05-24T13:51:38.056Z,1.70
2023-05-24T13:54:06.947Z,1.70
2023-05-24T13:56:34.186Z,1.83
2023-05-24T13:59:01.551Z,1.42
2023-05-24T14:01:28.369Z,1.52
2023-05-24T14:03:55.043Z,2.28
2023-05-24T14:06:21.893Z,1.52
2023-05-24T14:08:48.860Z,1.80
2023-05-24T14:11:16.012Z,1.73
2023-05-24T14:14:39.438Z,1.60
2023-05-24T14:16:29.031Z,1.55
2023-05-24T14:18:55.626Z,1.38
2023-05-24T14:21:23.336Z,1.65
2023-05-24T14:23:49.936Z,1.65
2023-05-24T14:26:16.688Z,1.52
2023-05-24T14:28:42.996Z,1.63
2023-05-24T14:31:09.302Z,1.40
2023-05-24T14:33:35.660Z,1.08
2023-05-24T14:36:02.025Z,1.40
2023-05-24T14:38:28.480Z,1.42
2023-05-24T14:40:57.004Z,1.60
2023-05-24T14:43:23.501Z,1.48
2023-05-24T14:45:49.886Z,1.27
2023-05-24T14:48:16.934Z,1.27
2023-05-24T14:50:43.334Z,1.45
2023-05-24T14:53:12.148Z,1.88
2023-05-24T14:55:40.962Z,1.60
2023-05-24T14:58:14.318Z,1.33
2023-05-24T15:00:41.507Z,1.20
2023-05-24T15:03:08.879Z,1.83
2023-05-24T15:05:36.145Z,1.92
2023-05-24T15:08:02.560Z,2.10
2023-05-24T15:10:29.270Z,1.70
2023-05-24T15:12:55.617Z,1.27
2023-05-24T15:15:22.496Z,1.63
2023-05-24T15:17:48.941Z,1.25
2023-05-24T15:20:15.559Z,1.98
2023-05-24T15:22:41.939Z,2.50
2023-05-24T15:25:08.534Z,1.65
2023-05-24T15:27:34.825Z,1.85
2023-05-24T15:30:01.163Z,1.45
2023-05-24T15:32:27.506Z,1.45
2023-05-24T15:34:53.948Z,1.70
2023-05-24T15:37:21.790Z,1.83
2023-05-24T15:39:49.278Z,1.30
2023-05-24T15:42:16.118Z,1.90
2023-05-24T15:44:42.426Z,1.42
2023-05-24T15:47:08.974Z,1.75
2023-05-24T15:49:35.415Z,1.45
2023-05-24T15:52:04.650Z,1.80
2023-05-24T15:54:31.730Z,1.70
2023-05-24T15:56:58.147Z,1.20
2023-05-24T15:59:25.156Z,1.63
2023-05-24T16:01:51.568Z,0.95
2023-05-24T16:04:18.089Z,1.60
2023-05-24T16:06:44.488Z,1.40
2023-05-24T16:09:10.907Z,1.33
2023-05-24T16:11:37.206Z,1.45
2023-05-24T16:14:03.978Z,1.15
2023-05-24T16:16:30.422Z,1.55
2023-05-24T16:18:56.797Z,2.10
2023-05-24T16:21:24.387Z,1.35
2023-05-24T16:23:50.925Z,1.90
2023-05-24T16:26:17.314Z,1.58
2023-05-24T16:28:44.150Z,1.20
2023-05-24T16:31:10.538Z,1.33
2023-05-24T16:33:36.886Z,1.50
2023-05-24T16:36:04.562Z,1.50
2023-05-24T16:38:30.934Z,1.60
2023-05-24T16:40:57.552Z,1.52
2023-05-24T16:43:24.001Z,1.67
2023-05-24T16:45:51.464Z,1.55
2023-05-24T16:48:21.201Z,2.80
2023-05-24T16:50:50.297Z,1.77
2023-05-24T16:53:16.753Z,1.92
2023-05-24T16:55:43.087Z,1.60
2023-05-24T16:58:09.397Z,1.65
2023-05-24T17:00:35.737Z,1.42
2023-05-24T17:03:02.218Z,1.70
2023-05-24T17:05:28.683Z,1.70
2023-05-24T17:07:55.223Z,1.48
2023-05-24T17:10:21.722Z,1.60
2023-05-24T17:12:48.043Z,1.92
2023-05-24T17:15:14.448Z,1.50
2023-05-24T17:17:40.910Z,1.60
2023-05-24T17:20:07.477Z,1.70
2023-05-24T17:22:33.879Z,1.67
2023-05-24T17:25:00.428Z,1.70
2023-05-24T17:27:26.794Z,1.48
2023-05-24T17:29:53.488Z,1.60
2023-05-24T17:32:19.816Z,1.77
2023-05-24T17:34:46.205Z,1.90
2023-05-24T17:37:12.620Z,1.90
2023-05-24T17:39:38.987Z,1.38
2023-05-24T17:42:05.542Z,1.48
2023-05-24T17:44:31.818Z,0.95
2023-05-24T17:47:02.050Z,1.58
2023-05-24T17:49:32.388Z,1.23
2023-05-24T17:52:00.582Z,2.03
2023-05-24T17:54:27.520Z,1.58
2023-05-24T17:56:53.820Z,1.27
2023-05-24T17:59:20.225Z,1.30
2023-05-24T18:01:46.884Z,1.67
2023-05-24T18:04:13.446Z,1.77
2023-05-24T18:06:39.822Z,1.77
2023-05-24T18:09:06.371Z,2.05
2023-05-24T18:11:32.688Z,1.50
2023-05-24T18:14:00.432Z,1.73
2023-05-24T18:16:26.961Z,1.52
2023-05-24T18:18:54.479Z,1.95
2023-05-24T18:21:20.906Z,1.23
2023-05-24T18:23:47.213Z,1.65
2023-05-24T18:26:13.631Z,2.13
2023-05-24T18:28:41.958Z,1.58
2023-05-24T18:31:10.437Z,1.70
2023-05-24T18:33:37.887Z,1.70
2023-05-24T18:36:05.755Z,1.40
2023-05-24T18:38:35.873Z,1.48
2023-05-24T18:41:05.767Z,1.75
2023-05-24T18:43:32.759Z,2.25
2023-05-24T18:45:59.102Z,1.70
2023-05-24T18:48:25.960Z,1.90
2023-05-24T18:50:52.262Z,2.00
2023-05-24T18:53:18.772Z,1.85
2023-05-24T18:55:46.861Z,1.80
2023-05-24T18:58:14.484Z,1.92
2023-05-24T19:00:40.821Z,2.35
2023-05-24T19:03:07.663Z,1.80
2023-05-24T19:05:34.116Z,1.80
2023-05-24T19:08:00.505Z,1.50
2023-05-24T19:10:26.806Z,1.73
2023-05-24T19:12:53.265Z,1.98
2023-05-24T19:15:19.605Z,1.83
2023-05-24T19:17:46.708Z,2.08
2023-05-24T19:20:13.183Z,1.73
2023-05-24T19:22:39.517Z,1.92
2023-05-24T19:25:06.141Z,2.60
2023-05-24T19:27:32.524Z,1.73
2023-05-24T19:30:00.080Z,2.67
2023-05-24T19:32:26.572Z,1.63
2023-05-24T19:34:52.995Z,1.65
2023-05-24T19:37:20.753Z,1.80
2023-05-24T19:39:47.076Z,1.42
2023-05-24T19:42:13.482Z,1.33
2023-05-24T19:44:39.829Z,2.22
2023-05-24T19:47:06.297Z,1.65
2023-05-24T19:49:32.657Z,2.30
2023-05-24T19:51:59.039Z,2.13
2023-05-24T19:54:25.485Z,2.05
2023-05-24T19:56:52.518Z,2.38
2023-05-24T19:59:18.945Z,1.77
2023-05-24T20:01:45.631Z,1.65
2023-05-24T20:04:12.591Z,2.20
2023-05-24T20:06:39.125Z,2.30
2023-05-24T20:09:05.574Z,2.40
2023-05-24T20:11:31.897Z,2.08
2023-05-24T20:13:58.898Z,2.38
2023-05-24T20:16:25.632Z,2.10
2023-05-24T20:18:52.093Z,2.15
2023-05-24T20:21:19.128Z,2.38
2023-05-24T20:23:45.548Z,2.00
2023-05-24T20:26:11.962Z,2.08
2023-05-24T20:28:38.336Z,2.22
2023-05-24T20:31:05.091Z,1.75
2023-05-24T20:33:33.429Z,1.98
2023-05-24T20:35:59.792Z,1.92
2023-05-24T20:38:26.075Z,2.50
2023-05-24T20:40:52.495Z,1.80
2023-05-24T20:43:18.800Z,2.38
2023-05-24T20:45:45.509Z,2.60
2023-05-24T20:48:12.092Z,2.20
2023-05-24T20:50:38.524Z,2.92
2023-05-24T20:53:04.816Z,2.17
2023-05-24T20:55:31.744Z,2.25
2023-05-24T20:57:58.178Z,2.47
2023-05-24T21:00:24.512Z,1.80
2023-05-24T21:02:51.296Z,2.55
2023-05-24T21:05:17.700Z,2.10
2023-05-24T21:07:44.083Z,3.35
2023-05-24T21:10:13.657Z,1.98
2023-05-24T21:12:39.995Z,2.72
2023-05-24T21:15:06.595Z,2.67
2023-05-24T21:17:32.962Z,2.35
2023-05-24T21:19:59.376Z,2.58
2023-05-24T21:22:25.750Z,2.67
2023-05-24T21:24:52.249Z,2.88
2023-05-24T21:27:19.727Z,1.80
2023-05-24T21:29:46.160Z,2.05
2023-05-24T21:32:12.517Z,2.65
2023-05-24T21:34:38.849Z,2.70
2023-05-24T21:37:05.300Z,2.25
2023-05-24T21:39:32.162Z,1.90
2023-05-24T21:41:58.782Z,2.35
2023-05-24T21:44:25.317Z,2.08
2023-05-24T21:46:51.693Z,2.88
2023-05-24T21:49:18.907Z,2.10
2023-05-24T21:51:45.399Z,2.72
2023-05-24T21:54:11.709Z,2.22
2023-05-24T21:56:38.095Z,2.10
2023-05-24T21:59:04.361Z,2.35
2023-05-24T22:01:30.786Z,2.42
2023-05-24T22:03:57.625Z,2.00
2023-05-24T22:06:23.997Z,2.03
2023-05-24T22:08:50.470Z,2.22
2023-05-24T22:11:16.840Z,2.53
2023-05-24T22:13:43.126Z,2.50
2023-05-24T22:16:09.502Z,1.73
2023-05-24T22:18:35.899Z,2.47
2023-05-24T22:21:02.257Z,2.50
2023-05-24T22:23:28.739Z,2.40
2023-05-24T22:25:55.134Z,2.58
2023-05-24T22:28:21.471Z,2.25
2023-05-24T22:30:47.954Z,2.03
2023-05-24T22:33:14.354Z,2.53
2023-05-24T22:35:40.724Z,2.55
2023-05-24T22:38:07.273Z,2.17
2023-05-24T22:40:33.672Z,2.72
2023-05-24T22:42:59.997Z,2.63
2023-05-24T22:45:26.390Z,2.40
2023-05-24T22:47:53.935Z,2.83
2023-05-24T22:50:20.533Z,3.30
2023-05-24T22:52:48.609Z,2.33
2023-05-24T22:55:14.950Z,2.63
2023-05-24T22:57:41.530Z,2.38
2023-05-24T23:00:08.324Z,2.90
2023-05-24T23:02:36.315Z,2.60
2023-05-24T23:05:03.954Z,2.33
2023-05-24T23:07:30.372Z,2.35
2023-05-24T23:09:56.846Z,2.67
2023-05-24T23:12:23.886Z,2.70
2023-05-24T23:14:50.415Z,2.75
2023-05-24T23:17:20.204Z,2.28
2023-05-24T23:19:50.181Z,2.67
2023-05-24T23:22:19.668Z,2.47
2023-05-24T23:24:47.193Z,2.63
2023-05-24T23:27:13.672Z,2.50
2023-05-24T23:29:40.026Z,2.60
2023-05-24T23:32:06.888Z,2.30
2023-05-24T23:34:36.373Z,2.10
2023-05-24T23:37:03.592Z,2.95
2023-05-24T23:39:30.057Z,2.53
2023-05-24T23:41:56.555Z,2.40
2023-05-24T23:44:23.656Z,2.42
2023-05-24T23:46:50.821Z,2.28
2023-05-24T23:49:17.161Z,2.92
2023-05-24T23:51:43.693Z,2.58
2023-05-24T23:54:10.020Z,2.80
2023-05-24T23:56:37.545Z,2.58
2023-05-24T23:59:04.720Z,2.88
